Andover, VT

7:06 AM EDT on September 19, 2014 (GMT -0400)
Goldthwaite Road | Change Station
CLOSE
Current Station
Personal Weather Station
Location: Chester, VT
Elevation: 1227 ft
Nearby Weather Stations
Active Advisory: Frost Advisory Active Notice: Record Report

Elev 1227 ft 43.27 °N, 72.65 °W | Updated 2 seconds ago

Overcast
Overcast
37.2 °F
Feels Like 37 °F
N
0.0
Wind Variable Wind from West
Gusts 0.0 mph

Today
High -- | Low -- °F
--% Chance of Precip.
Yesterday
High -- | Low -- °F
Precip. -- in
6:34 AM 6:53 PM
Waning Crescent, 20% visible
Pressure 30.38 in
Visibility 0.2 miles
Clouds
Windchill 37 °F
Dew Point 31 °F
Humidity 77%
Rainfall 0.00 in
Snow Depth Not available.
UV Not available.
Pollen 2.80 out of 12
Ozone Good
Flu Activity Not available.
METAR KVSF 191054Z AUTO 00000KT 1/4SM FG VV002 00/M01 A3036 RMK AO2 SLP287 T00001006

More Conditions Fewer Conditions

Pressure 30.38 in
Visibility 0.2 miles
Clouds
Windchill 37 °F
Dew Point 31 °F
Humidity 77%
Rainfall 0.00 in
Snow Depth Not available.
UV Not available.
Pollen 2.80 out of 12
Ozone Good
Flu Activity Not available.
METAR KVSF 191054Z AUTO 00000KT 1/4SM FG VV002 00/M01 A3036 RMK AO2 SLP287 T00001006

More Conditions Fewer Conditions

10-Day Weather Forecast

Almanac

Astronomy

Sep. 19, 2014 Rise Set
Actual Time 6:34 AM EDT 6:53 PM EDT
Civil Twilight 6:05 AM EDT 7:21 PM EDT
Nautical Twilight 5:32 AM EDT 7:55 PM EDT
Astronomical Twilight 4:57 AM EDT 8:29 PM EDT
Moon 2:11 AM EDT 4:25 PM EDT
Length of Visible Light 13h 15m
Length of Day
12h 18m
Tomorrow will be 2m 56s shorter.
Waning Crescent, 20% of the Moon is Illuminated
Today
Waning Crescent
Sep 24
New
Oct 1
First Quarter
Oct 8
Full
Oct 15
Last Quarter

Today's Extremes

State Highs State Lows

Community

WunderPhotos

Upload Photos

1,754,592 photos uploaded!

WunderBlogs® & News

Nearby

Air Quality

  Air Quality AQ Index Pollutant
Yesterday Good
OZONE
Yesterday Good
PM2.5
Current Good
OZONE
Friday Good
PM2.5
Friday Good
OZONE

Snow Depth

Station Depth Elevation
No new snow has been reported.

Earthquake Activity

City Distance Mag. Time & Date
No recent earthquake activity has been reported nearby.
Minimum magnitude displayed is 2.5.

Coastal Water Temperatures

Place Temperature
No Stations Reporting

Nearby Weather Stations